Time;durP1;ratioP1;P1;durP2;ratioP2;P2;SDS_P1;SDS_P2;PMS_P1;PMS_P2;Temp;Humidity;BMP_temperature;BMP_pressure;BME280_temperature;BME280_humidity;BME280_pressure;Samples;Min_cycle;Max_cycle;Signal;HPM_P1;HPM_P2
2022/01/21 00:02:40;;;;;;;11.32;2.30;;;;;;;-1.85;100.00;101861.50;5978868;29;20599;-85
2022/01/21 00:06:06;;;;;;;8.95;2.28;;;;;;;-1.81;100.00;101858.94;5973880;29;20069;-85
2022/01/21 00:09:09;;;;;;;8.90;1.80;;;;;;;-1.92;100.00;101865.75;5969402;29;20042;-85
2022/01/21 00:12:11;;;;;;;21.73;3.22;;;;;;;-1.90;100.00;101871.66;5970525;29;20512;-85
2022/01/21 00:15:13;;;;;;;8.43;2.72;;;;;;;-2.09;100.00;101873.44;5973040;29;20074;-85
2022/01/21 00:18:15;;;;;;;14.50;2.72;;;;;;;-2.10;100.00;101864.16;5974032;29;20078;-85
2022/01/21 00:31:57;;;;;;;9.98;2.10;;;;;;;-1.91;100.00;101879.25;5971849;29;20445;-85
2022/01/21 00:35:08;;;;;;;9.02;2.83;;;;;;;-1.89;100.00;101872.50;5972650;29;20050;-85
2022/01/21 00:38:13;;;;;;;14.60;2.50;;;;;;;-1.96;100.00;101877.63;5967993;29;20050;-85
2022/01/21 00:41:21;;;;;;;12.07;1.80;;;;;;;-2.00;100.00;101878.47;5974822;29;20055;-85
2022/01/21 00:44:23;;;;;;;9.43;3.17;;;;;;;-2.02;100.00;101875.09;5974324;29;20053;-85
2022/01/21 00:47:29;;;;;;;8.88;2.20;;;;;;;-2.17;100.00;101883.63;5971140;29;20125;-85
2022/01/21 00:50:32;;;;;;;6.30;2.03;;;;;;;-2.18;100.00;101876.88;5969981;29;20177;-85
2022/01/21 00:53:34;;;;;;;10.88;1.88;;;;;;;-2.28;100.00;101872.69;5971613;29;20515;-85
2022/01/21 01:01:15;;;;;;;9.18;1.95;;;;;;;-2.34;100.00;101872.69;5977086;29;20049;-85
2022/01/21 01:04:17;;;;;;;15.15;2.45;;;;;;;-2.30;100.00;101864.25;5973742;29;20054;-85
2022/01/21 01:07:19;;;;;;;7.30;2.35;;;;;;;-2.19;100.00;101866.72;5965040;29;20077;-85
2022/01/21 01:10:40;;;;;;;10.90;2.22;;;;;;;-2.05;100.00;101859.91;5969306;29;20059;-85
2022/01/21 01:20:44;;;;;;;;;;;;;;;-1.86;100.00;101862.31;5976015;29;20172;-85
2022/01/21 01:27:42;;;;;;;;;;;;;;;-1.98;100.00;101866.63;5966909;29;20551;-85
2022/01/21 01:30:45;;;;;;;8.95;1.63;;;;;;;-1.97;100.00;101863.22;5959990;29;20768;-85
2022/01/21 01:33:47;;;;;;;9.90;2.03;;;;;;;-2.07;100.00;101869.19;5970497;29;20626;-85
2022/01/21 01:36:49;;;;;;;11.93;1.73;;;;;;;-2.07;100.00;101860.75;5963804;29;20397;-85
2022/01/21 01:40:01;;;;;;;17.92;2.22;;;;;;;-2.11;100.00;101869.22;5969319;29;20062;-85
2022/01/21 01:49:39;;;;;;;8.50;2.05;;;;;;;-1.83;100.00;101864.88;5983962;29;20134;-85
2022/01/21 01:56:58;;;;;;;10.15;1.52;;;;;;;-1.84;100.00;101860.63;5972125;29;20054;-85
2022/01/21 02:00:01;;;;;;;7.45;1.80;;;;;;;-1.87;100.00;101868.25;5969688;29;20512;-84
2022/01/21 02:03:15;;;;;;;8.40;1.88;;;;;;;-1.90;100.00;101865.75;5968531;29;20149;-85
2022/01/21 02:06:17;;;;;;;9.57;1.60;;;;;;;-1.85;100.00;101871.63;5969549;29;20046;-85
2022/01/21 02:09:20;;;;;;;11.50;2.13;;;;;;;-1.71;100.00;101877.47;5974188;29;20062;-85
2022/01/21 02:12:22;;;;;;;8.07;2.45;;;;;;;-1.71;100.00;101869.88;5962926;29;20066;-85
2022/01/21 02:22:43;;;;;;;10.15;1.77;;;;;;;-1.74;100.00;101869.84;5975823;29;20057;-85
2022/01/21 02:30:22;;;;;;;12.00;1.80;;;;;;;-1.60;100.00;101863.00;5972253;29;20054;-85
2022/01/21 02:33:29;;;;;;;8.68;2.13;;;;;;;-1.63;100.00;101863.03;5975338;29;20058;-85
2022/01/21 02:36:33;;;;;;;8.98;1.80;;;;;;;-1.55;100.00;101862.97;5971773;29;20061;-84
2022/01/21 02:39:36;;;;;;;7.47;2.42;;;;;;;-1.61;100.00;101850.34;5955452;29;20058;-85
2022/01/21 02:42:38;;;;;;;9.27;1.67;;;;;;;-1.66;100.00;101847.84;5973875;29;20052;-84
2022/01/21 02:45:45;;;;;;;11.27;2.17;;;;;;;-1.59;100.00;101839.31;5980160;29;20066;-84
2022/01/21 02:48:47;;;;;;;8.40;1.80;;;;;;;-1.59;100.00;101830.84;5969555;29;20059;-84
2022/01/21 02:51:51;;;;;;;8.18;2.03;;;;;;;-1.57;100.00;101842.66;5976659;29;20054;-84
2022/01/21 02:54:53;;;;;;;10.68;1.60;;;;;;;-1.53;100.00;101836.72;5972425;29;20056;-84
2022/01/21 02:57:55;;;;;;;7.78;1.23;;;;;;;-1.64;100.00;101840.19;5974412;29;20042;-84
2022/01/21 03:01:21;;;;;;;9.57;2.40;;;;;;;-1.56;100.00;101841.84;5972822;29;20092;-84
2022/01/21 03:07:49;;;;;;;8.15;1.88;;;;;;;-1.57;100.00;101864.69;5966579;29;20070;-84
2022/01/21 03:11:28;;;;;;;12.18;2.47;;;;;;;-1.64;100.00;101850.34;5974141;29;20090;-84
2022/01/21 03:14:30;;;;;;;6.78;1.60;;;;;;;-1.49;100.00;101847.72;5976514;29;20115;-85
2022/01/21 03:17:32;;;;;;;8.55;1.65;;;;;;;-1.27;100.00;101855.13;5970228;29;20051;-85
2022/01/21 03:20:37;;;;;;;9.38;2.00;;;;;;;-1.11;100.00;101865.16;5975216;29;20057;-85
2022/01/21 03:23:51;;;;;;;9.25;1.90;;;;;;;-1.06;100.00;101860.03;5970020;29;20073;-85
2022/01/21 03:26:53;;;;;;;4.20;1.95;;;;;;;-1.02;100.00;101869.31;5995734;29;20267;-85
2022/01/21 03:29:57;;;;;;;9.80;1.50;;;;;;;-1.09;100.00;101868.53;5958387;29;20073;-84
2022/01/21 03:37:29;;;;;;;8.63;1.40;;;;;;;-1.28;100.00;101863.63;5977796;29;20054;-84
2022/01/21 03:40:33;;;;;;;5.07;1.55;;;;;;;-1.25;100.00;101864.44;5966725;29;20519;-84
2022/01/21 03:43:51;;;;;;;11.88;2.17;;;;;;;-1.15;100.00;101875.38;5975735;29;20058;-84
2022/01/21 03:46:53;;;;;;;12.25;2.47;;;;;;;-1.12;100.00;101888.91;5968231;29;20123;-84
2022/01/21 03:50:08;;;;;;;8.20;2.13;;;;;;;-1.19;100.00;101884.72;5972660;29;20076;-84
2022/01/21 03:53:11;;;;;;;8.15;2.28;;;;;;;-1.18;100.00;101888.09;5977142;29;20038;-84
2022/01/21 03:56:39;;;;;;;7.07;1.65;;;;;;;-1.03;100.00;101884.59;5980990;29;20055;-84
2022/01/21 03:59:49;;;;;;;6.05;1.52;;;;;;;-1.02;100.00;101881.16;5979257;29;20049;-84
2022/01/21 04:02:52;;;;;;;7.60;1.80;;;;;;;-1.11;100.00;101884.66;5975385;29;20547;-84
2022/01/21 04:10:15;;;;;;;9.98;1.50;;;;;;;-1.25;100.00;101874.59;5979946;29;20054;-84
2022/01/21 04:13:20;;;;;;;4.38;1.40;;;;;;;-1.23;100.00;101893.22;5968006;29;20058;-84
2022/01/21 04:16:25;;;;;;;4.15;1.52;;;;;;;-1.27;100.00;101890.69;5983636;29;20050;-84
2022/01/21 04:23:46;;;;;;;5.55;1.40;;;;;;;-1.27;100.00;101901.69;5984245;29;20484;-84
2022/01/21 04:26:57;;;;;;;8.45;1.60;;;;;;;-1.34;100.00;101912.78;5976070;29;20042;-84
2022/01/21 04:30:00;;;;;;;7.40;1.67;;;;;;;-1.42;100.00;101906.91;5964914;29;20055;-84
2022/01/21 04:33:48;;;;;;;4.70;1.17;;;;;;;-1.37;100.00;101905.16;5980592;29;20042;-84
2022/01/21 04:36:51;;;;;;;10.95;1.75;;;;;;;-1.38;100.00;101903.50;5969692;29;20042;-84
2022/01/21 04:50:18;;;;;;;;;;;;;;;-1.34;100.00;101888.22;5973590;29;20237;-84
2022/01/21 04:53:50;;;;;;;7.40;1.60;;;;;;;-1.34;100.00;101898.38;5962902;29;19929;-84
2022/01/21 04:56:57;;;;;;;4.90;1.60;;;;;;;-1.42;100.00;101899.28;5976601;29;20538;-84
2022/01/21 04:59:59;;;;;;;6.88;1.67;;;;;;;-1.34;100.00;101885.69;5974405;29;20136;-84
2022/01/21 05:07:04;;;;;;;7.20;1.80;;;;;;;-1.22;100.00;101882.19;5974680;29;20497;-84
2022/01/21 05:10:08;;;;;;;6.70;1.48;;;;;;;-1.25;100.00;101872.06;5971927;29;20054;-84
2022/01/21 05:13:11;;;;;;;8.05;1.90;;;;;;;-1.35;100.00;101876.38;5979560;29;20115;-84
2022/01/21 05:19:37;;;;;;;8.00;1.58;;;;;;;-1.32;100.00;101868.75;5981051;29;20145;-84
2022/01/21 05:22:57;;;;;;;20.75;1.67;;;;;;;-1.33;100.00;101861.13;5976327;29;20108;-84
2022/01/21 05:25:59;;;;;;;10.55;1.90;;;;;;;-1.36;100.00;101861.16;5975279;29;20047;-84
2022/01/21 05:29:04;;;;;;;10.80;1.83;;;;;;;-1.37;100.00;101862.81;5971367;29;20046;-84
2022/01/21 05:32:22;;;;;;;7.57;2.15;;;;;;;-1.32;100.00;101852.63;5977524;29;20124;-84
2022/01/21 05:35:53;;;;;;;11.48;1.77;;;;;;;-1.25;100.00;101861.06;5978872;29;20095;-84
2022/01/21 05:39:16;;;;;;;5.80;1.42;;;;;;;-1.23;100.00;101872.88;5983857;29;20092;-84
2022/01/21 05:42:37;;;;;;;5.70;2.22;;;;;;;-0.97;100.00;101874.34;5972258;29;20054;-84
2022/01/21 05:49:37;;;;;;;6.93;1.40;;;;;;;-0.80;100.00;101892.81;5980713;29;20050;-84
2022/01/21 05:57:07;;;;;;;4.72;1.00;;;;;;;-0.74;100.00;101877.53;5989488;29;20039;-84
2022/01/21 06:00:13;;;;;;;8.20;2.10;;;;;;;-0.76;100.00;101879.25;5981040;29;20055;-84
2022/01/21 06:08:04;;;;;;;7.05;1.60;;;;;;;-0.63;100.00;101885.03;5982200;29;20058;-84
2022/01/21 06:11:06;;;;;;;4.38;1.80;;;;;;;-0.60;100.00;101882.44;5976055;29;20046;-84
2022/01/21 06:14:45;;;;;;;3.72;1.48;;;;;;;-0.62;100.00;101878.25;5971330;29;20047;-84
2022/01/21 06:18:11;;;;;;;7.40;1.20;;;;;;;-0.64;100.00;101870.66;5969052;29;20069;-85
2022/01/21 06:21:13;;;;;;;9.20;1.52;;;;;;;-0.61;100.00;101872.31;5986239;29;20050;-85
2022/01/21 06:28:27;;;;;;;;;;;;;;;-0.60;100.00;101879.91;5975186;29;20050;-85
2022/01/21 06:31:29;;;;;;;6.50;1.70;;;;;;;-0.54;100.00;101879.03;5984344;29;19961;-85
2022/01/21 06:34:50;;;;;;;7.25;1.42;;;;;;;-0.49;100.00;101885.72;5976436;29;20050;-85
2022/01/21 06:38:19;;;;;;;11.35;1.70;;;;;;;-0.46;100.00;101898.41;5980079;29;20129;-85
2022/01/21 06:41:22;;;;;;;7.50;1.60;;;;;;;-0.38;100.00;101898.31;5976955;29;20528;-85
2022/01/21 06:44:24;;;;;;;8.68;1.58;;;;;;;-0.28;100.00;101894.81;5979929;29;20046;-86
2022/01/21 06:47:46;;;;;;;6.35;1.50;;;;;;;-0.25;100.00;101891.38;5979614;29;20050;-86
2022/01/21 06:51:12;;;;;;;8.95;1.80;;;;;;;-0.25;100.00;101892.25;5974101;29;20038;-86
2022/01/21 06:54:14;;;;;;;7.53;1.35;;;;;;;-0.26;100.00;101907.53;5976784;29;20420;-86
2022/01/21 06:57:16;;;;;;;9.35;1.90;;;;;;;-0.23;100.00;101894.75;5975103;29;20066;-86
2022/01/21 07:00:20;;;;;;;9.25;1.70;;;;;;;-0.14;100.00;101904.00;5968399;29;20130;-86
2022/01/21 07:03:22;;;;;;;6.85;1.45;;;;;;;-0.15;100.00;101904.84;5972693;29;20069;-86
2022/01/21 07:06:24;;;;;;;7.50;1.83;;;;;;;-0.15;100.00;101913.34;5972512;29;20052;-87
2022/01/21 07:09:27;;;;;;;3.80;1.35;;;;;;;-0.09;100.00;101918.34;5969582;29;20098;-87
2022/01/21 07:12:28;;;;;;;6.88;1.40;;;;;;;-0.08;100.00;101911.53;5969080;29;20055;-88
2022/01/21 07:15:31;;;;;;;7.75;1.55;;;;;;;-0.09;100.00;101920.88;5963555;29;20090;-88
2022/01/21 07:19:30;;;;;;;8.57;2.05;;;;;;;-0.13;100.00;101920.94;5969298;29;20050;-88
2022/01/21 07:22:32;;;;;;;14.07;2.17;;;;;;;-0.11;100.00;101939.59;5966158;29;20080;-88
2022/01/21 07:25:34;;;;;;;9.48;2.05;;;;;;;-0.05;100.00;101934.41;5965553;29;20047;-88
2022/01/21 07:29:14;;;;;;;7.75;2.38;;;;;;;-0.11;100.00;101945.50;5972273;29;20050;-89
2022/01/21 07:32:43;;;;;;;11.93;2.25;;;;;;;-0.13;100.00;101954.03;5965830;29;20038;-89
2022/01/21 07:35:46;;;;;;;6.00;1.75;;;;;;;-0.25;100.00;101955.84;5956395;29;20051;-89
2022/01/21 07:38:48;;;;;;;9.68;2.30;;;;;;;-0.20;100.00;101962.56;5969699;29;20042;-89
2022/01/21 07:41:51;;;;;;;11.07;1.95;;;;;;;-0.16;100.00;101962.53;5970907;29;20073;-89
2022/01/21 07:44:53;;;;;;;11.60;2.17;;;;;;;-0.17;100.00;101960.00;5967400;29;20050;-90
2022/01/21 07:47:55;;;;;;;8.25;2.08;;;;;;;-0.14;100.00;101948.09;5974694;29;20111;-90
2022/01/21 07:50:57;;;;;;;5.22;1.88;;;;;;;-0.15;100.00;101953.19;5961966;29;20592;-90
2022/01/21 07:54:37;;;;;;;5.22;2.10;;;;;;;-0.12;100.00;101954.00;5975510;29;20050;-91
2022/01/21 07:57:39;;;;;;;7.55;2.22;;;;;;;-0.07;100.00;101952.25;5987525;29;20496;-90
2022/01/21 08:00:41;;;;;;;11.95;2.35;;;;;;;-0.12;100.00;101946.38;5974562;29;20084;-91
2022/01/21 08:03:44;;;;;;;7.93;1.95;;;;;;;-0.04;100.00;101942.03;5974386;29;20038;-91
2022/01/21 08:06:46;;;;;;;7.68;2.33;;;;;;;-0.09;100.00;101948.03;5975923;29;20125;-91
2022/01/21 08:09:51;;;;;;;7.25;2.03;;;;;;;0.01;100.00;101954.72;5976634;29;20050;-91
2022/01/21 08:12:53;;;;;;;9.63;2.28;;;;;;;0.03;100.00;101953.00;5978314;29;20050;-91
2022/01/21 08:16:24;;;;;;;11.57;2.70;;;;;;;0.06;100.00;101945.31;5972561;29;20053;-91
2022/01/21 08:19:26;;;;;;;9.27;2.88;;;;;;;0.21;100.00;101945.09;5977794;29;20046;-91
2022/01/21 08:22:28;;;;;;;6.47;2.35;;;;;;;0.27;100.00;101948.44;5977918;29;20050;-92
2022/01/21 08:25:30;;;;;;;8.20;1.90;;;;;;;0.29;100.00;101939.06;5963631;29;20058;-93
2022/01/21 08:28:32;;;;;;;7.30;2.42;;;;;;;0.31;100.00;101948.38;5981402;29;20042;-93
2022/01/21 08:31:35;;;;;;;8.10;2.50;;;;;;;0.36;100.00;101948.31;5988629;29;20046;-93
2022/01/21 08:34:40;;;;;;;7.68;2.40;;;;;;;0.28;100.00;101945.03;5988871;29;20053;-92
2022/01/21 08:37:45;;;;;;;6.80;2.25;;;;;;;0.34;100.00;101950.88;5989460;29;20039;-93
2022/01/21 08:40:54;;;;;;;12.35;2.72;;;;;;;0.41;100.00;101951.66;5979721;29;20504;-93
2022/01/21 08:44:01;;;;;;;7.32;2.33;;;;;;;0.41;100.00;101952.47;5973733;29;20078;-93
2022/01/21 08:47:08;;;;;;;4.80;2.28;;;;;;;0.45;100.00;101945.66;5984669;29;20051;-92
2022/01/21 08:50:17;;;;;;;7.13;2.88;;;;;;;0.40;100.00;101942.34;5970361;29;20673;-93
2022/01/21 08:53:38;;;;;;;7.38;2.33;;;;;;;0.43;100.00;101953.31;5965206;29;20096;-92
2022/01/21 08:56:42;;;;;;;13.30;2.67;;;;;;;0.44;100.00;101954.16;5973244;29;20046;-93
2022/01/21 08:59:44;;;;;;;7.40;2.65;;;;;;;0.50;100.00;101946.44;5981849;29;20050;-92
2022/01/21 09:02:51;;;;;;;6.10;2.15;;;;;;;0.51;100.00;101950.66;5962244;29;20057;-92
2022/01/21 09:06:36;;;;;;;8.75;2.33;;;;;;;0.53;100.00;101953.19;5977528;29;20085;-90
2022/01/21 09:09:45;;;;;;;6.00;2.00;;;;;;;0.54;100.00;101967.59;5970918;29;20058;-90
2022/01/21 09:12:47;;;;;;;7.35;2.50;;;;;;;0.57;100.00;101975.19;5977725;29;20211;-90
2022/01/21 09:16:08;;;;;;;7.28;2.58;;;;;;;0.55;100.00;101987.97;5978338;29;20183;-90
2022/01/21 09:23:09;;;;;;;9.10;2.45;;;;;;;0.55;100.00;101998.16;5978048;29;20129;-90
2022/01/21 09:26:11;;;;;;;5.38;2.13;;;;;;;0.56;100.00;101991.34;5977164;29;20046;-90
2022/01/21 09:29:14;;;;;;;4.32;2.30;;;;;;;0.55;100.00;101997.31;5967847;29;20050;-90
2022/01/21 09:32:29;;;;;;;6.53;2.15;;;;;;;0.60;100.00;101993.84;5974491;29;20053;-90
2022/01/21 09:35:31;;;;;;;5.35;2.03;;;;;;;0.61;100.00;101994.69;5977761;29;20461;-91
2022/01/21 09:38:34;;;;;;;8.50;2.75;;;;;;;0.64;100.00;102003.09;5978861;29;20058;-89
2022/01/21 09:45:19;;;;;;;5.88;1.98;;;;;;;0.78;100.00;102004.63;5973317;29;20046;-90
2022/01/21 09:48:25;;;;;;;4.47;2.40;;;;;;;0.79;100.00;102001.22;5973136;29;20046;-89
2022/01/21 09:51:30;;;;;;;7.72;3.00;;;;;;;0.82;100.00;102001.16;5978904;29;20467;-89
2022/01/21 09:54:35;;;;;;;9.35;3.17;;;;;;;0.97;100.00;102006.06;5976877;29;20628;-89
2022/01/21 09:57:40;;;;;;;7.28;2.08;;;;;;;1.04;100.00;102015.31;5975843;29;20042;-90
2022/01/21 10:00:43;;;;;;;8.15;2.65;;;;;;;1.02;100.00;102003.44;5988310;29;20130;-90
2022/01/21 10:04:04;;;;;;;8.52;2.20;;;;;;;1.00;100.00;102010.28;5966404;29;20172;-90
2022/01/21 10:07:09;;;;;;;;;;;;;;;0.99;100.00;102009.41;5976882;29;20054;-89
2022/01/21 10:10:12;;;;;;;7.45;2.33;;;;;;;0.98;100.00;102005.19;5978180;29;19929;-89
2022/01/21 10:13:23;;;;;;;7.72;2.35;;;;;;;1.01;100.00;102015.31;5981453;29;20056;-90
2022/01/21 10:16:25;;;;;;;7.07;2.47;;;;;;;1.06;100.00;102013.53;5980600;29;20119;-90
2022/01/21 10:23:50;;;;;;;6.30;2.65;;;;;;;1.15;100.00;102027.03;5968708;29;20057;-89
2022/01/21 10:26:54;;;;;;;4.65;2.05;;;;;;;1.19;100.00;102023.56;5970554;29;20078;-90
2022/01/21 10:29:57;;;;;;;7.90;2.53;;;;;;;1.20;100.00;102018.44;5982889;29;20050;-89
2022/01/21 10:32:59;;;;;;;7.20;2.17;;;;;;;1.23;100.00;102025.22;5991322;29;20054;-90
2022/01/21 10:36:31;;;;;;;7.93;2.90;;;;;;;1.24;100.00;102016.69;5979222;29;20050;-90
2022/01/21 10:39:53;;;;;;;10.73;2.45;;;;;;;1.32;100.00;102014.88;5979631;29;20053;-90
2022/01/21 10:43:24;;;;;;;5.45;2.22;;;;;;;1.40;100.00;102007.09;5969550;29;20053;-90
2022/01/21 10:46:26;;;;;;;8.90;2.50;;;;;;;1.39;100.00;102007.94;5981200;29;20046;-90
2022/01/21 10:49:28;;;;;;;7.78;2.22;;;;;;;1.37;100.00;102000.31;5980449;29;20349;-89
2022/01/21 10:52:36;;;;;;;4.78;2.35;;;;;;;1.42;100.00;102013.00;5974134;29;20058;-90
2022/01/21 10:55:38;;;;;;;8.93;3.00;;;;;;;1.43;100.00;102004.47;5979469;29;20054;-90
2022/01/21 10:58:42;;;;;;;17.10;2.85;;;;;;;1.52;100.00;102022.19;5969306;29;20050;-89
2022/01/21 11:02:32;;;;;;;6.82;2.17;;;;;;;1.63;100.00;102025.38;5978788;29;20129;-89
2022/01/21 11:05:39;;;;;;;6.38;1.95;;;;;;;1.55;100.00;102011.91;5977922;29;20042;-89
2022/01/21 11:08:41;;;;;;;8.05;2.05;;;;;;;1.47;100.00;102019.69;5957602;29;20046;-91
2022/01/21 11:11:46;;;;;;;9.57;2.70;;;;;;;1.59;100.00;102031.41;5972183;29;20038;-89
2022/01/21 11:15:05;;;;;;;8.18;2.28;;;;;;;1.66;100.00;102019.38;5979228;29;20042;-89
2022/01/21 11:18:12;;;;;;;6.45;2.15;;;;;;;1.68;100.00;102023.59;5977130;29;20501;-89
2022/01/21 11:25:01;;;;;;;12.90;3.47;;;;;;;1.66;100.00;102042.34;5979551;29;20043;-88
2022/01/21 11:28:03;;;;;;;5.85;2.20;;;;;;;1.69;100.00;102022.72;5971528;29;20082;-88
2022/01/21 11:31:07;;;;;;;9.05;2.78;;;;;;;1.78;100.00;102034.47;5977182;29;20053;-89
2022/01/21 11:34:10;;;;;;;7.05;2.13;;;;;;;1.93;100.00;102030.78;5979064;29;20073;-88
2022/01/21 11:41:29;;;;;;;9.23;2.97;;;;;;;2.05;100.00;102027.19;5951721;29;20056;-89
2022/01/21 11:44:37;;;;;;;11.85;2.38;;;;;;;1.96;100.00;102040.09;5975220;29;20081;-88
2022/01/21 11:48:49;;;;;;;5.85;1.58;;;;;;;1.95;100.00;102039.28;5966536;29;20106;-89
2022/01/21 11:51:41;;;;;;;12.37;3.40;;;;;;;1.88;100.00;102037.69;5956235;29;20063;-89
2022/01/21 11:54:43;;;;;;;9.55;2.10;;;;;;;1.88;100.00;102033.44;5951851;29;20303;-89
2022/01/21 11:58:18;;;;;;;6.50;1.92;;;;;;;1.87;100.00;102026.66;5960447;29;20241;-90
2022/01/21 12:01:47;;;;;;;7.93;1.83;;;;;;;1.94;100.00;102030.78;5975403;29;20141;-90
2022/01/21 12:05:10;;;;;;;5.85;1.95;;;;;;;2.02;100.00;102022.97;5973656;29;20128;-89
2022/01/21 12:08:12;;;;;;;7.00;2.65;;;;;;;2.05;100.00;102020.34;5942565;29;20584;-89
2022/01/21 12:11:40;;;;;;;6.93;2.00;;;;;;;2.07;100.00;102016.06;5967271;29;20670;-90
2022/01/21 12:14:48;;;;;;;8.07;2.40;;;;;;;2.06;100.00;102018.63;5953801;29;20055;-90
2022/01/21 12:18:16;;;;;;;11.73;2.45;;;;;;;2.13;100.00;102000.59;5954024;29;20062;-89
2022/01/21 12:21:40;;;;;;;6.40;2.00;;;;;;;2.15;100.00;101996.31;5969507;29;20435;-89
2022/01/21 12:25:13;;;;;;;6.68;2.45;;;;;;;2.20;100.00;101998.78;5971715;29;20062;-89
2022/01/21 12:28:28;;;;;;;6.78;2.13;;;;;;;2.21;100.00;101989.38;5964256;29;20055;-89
2022/01/21 12:31:59;;;;;;;6.40;1.90;;;;;;;2.24;100.00;101995.28;5969818;29;20503;-89
2022/01/21 12:35:22;;;;;;;3.92;1.92;;;;;;;2.29;100.00;101987.53;5973051;29;20054;-90
2022/01/21 12:41:37;;;;;;;10.57;2.47;;;;;;;2.38;100.00;101987.31;5988211;29;20129;-91
2022/01/21 12:44:39;;;;;;;7.60;2.72;;;;;;;2.32;100.00;101979.81;5970166;29;20062;-90
2022/01/21 12:47:54;;;;;;;14.00;2.38;;;;;;;2.30;100.00;101992.59;5969112;29;20057;-90
2022/01/21 12:58:05;;;;;;;12.90;2.28;;;;;;;2.34;100.00;101984.00;5969127;29;20042;-91
2022/01/21 13:01:12;;;;;;;7.13;2.30;;;;;;;2.40;100.00;101971.97;5970615;29;20196;-91
2022/01/21 13:04:47;;;;;;;9.50;2.63;;;;;;;2.44;100.00;101977.00;5971590;29;20046;-91
2022/01/21 13:08:23;;;;;;;6.05;1.85;;;;;;;2.43;100.00;101957.41;5967060;29;20404;-91
2022/01/21 13:11:43;;;;;;;8.35;2.30;;;;;;;2.50;100.00;101960.66;5963052;29;20038;-90
2022/01/21 13:15:01;;;;;;;5.70;1.90;;;;;;;2.60;100.00;101967.25;5957856;29;20055;-90
2022/01/21 13:18:25;;;;;;;14.48;2.70;;;;;;;2.63;100.00;101966.34;5967640;29;20404;-90
2022/01/21 13:21:46;;;;;;;12.55;2.88;;;;;;;2.69;100.00;101966.22;5965722;29;20537;-91
2022/01/21 13:25:07;;;;;;;9.93;2.40;;;;;;;2.76;100.00;101968.59;5967779;29;20132;-91
2022/01/21 13:28:15;;;;;;;7.07;2.25;;;;;;;2.88;100.00;101966.63;5966728;29;20114;-91
2022/01/21 13:31:17;;;;;;;8.65;2.17;;;;;;;2.82;100.00;101959.09;5966903;29;20050;-91
2022/01/21 13:34:24;;;;;;;10.93;2.10;;;;;;;2.75;100.00;101964.34;5968147;29;20564;-90
2022/01/21 13:37:28;;;;;;;6.70;2.10;;;;;;;2.74;100.00;101967.78;5961650;29;20047;-90
2022/01/21 13:40:35;;;;;;;13.95;2.50;;;;;;;2.59;100.00;101961.31;5963051;29;20507;-90
2022/01/21 13:43:37;;;;;;;6.97;2.30;;;;;;;2.58;100.00;101948.56;5962922;29;20774;-90
2022/01/21 13:46:39;;;;;;;7.30;2.10;;;;;;;2.67;100.00;101945.78;5968227;29;20051;-90
2022/01/21 13:49:47;;;;;;;7.38;2.10;;;;;;;2.66;100.00;101946.69;5967605;29;20082;-91
2022/01/21 13:52:58;;;;;;;8.38;2.95;;;;;;;2.52;100.00;101935.94;5967995;29;20568;-91
2022/01/21 13:56:04;;;;;;;7.65;2.22;;;;;;;2.42;100.00;101934.44;5948175;29;20057;-91
2022/01/21 13:59:06;;;;;;;12.57;2.17;;;;;;;2.44;100.00;101938.66;5963051;29;20050;-91
2022/01/21 14:06:34;;;;;;;11.77;2.88;;;;;;;2.49;100.00;101924.06;5973204;29;20080;-90
2022/01/21 14:09:37;;;;;;;10.63;2.45;;;;;;;2.60;100.00;101926.34;5968306;29;20030;-91
2022/01/21 14:12:39;;;;;;;13.52;2.95;;;;;;;2.74;100.00;101920.94;5970246;29;20047;-91
2022/01/21 14:15:41;;;;;;;10.23;2.63;;;;;;;2.81;100.00;101927.59;5955576;29;20050;-91
2022/01/21 14:18:47;;;;;;;8.95;2.60;;;;;;;2.98;100.00;101922.91;5974203;29;20050;-91
2022/01/21 14:22:03;;;;;;;13.30;3.10;;;;;;;3.09;100.00;101929.47;5975100;29;20053;-91
2022/01/21 14:25:09;;;;;;;12.55;3.20;;;;;;;3.06;100.00;101927.81;5972541;29;20102;-91
2022/01/21 14:28:12;;;;;;;13.70;2.90;;;;;;;3.01;100.00;101935.59;5971167;29;20101;-91
2022/01/21 14:31:52;;;;;;;17.27;2.80;;;;;;;3.03;100.00;101927.88;5973547;29;20043;-92
2022/01/21 14:35:30;;;;;;;14.25;2.58;;;;;;;3.03;100.00;101922.75;5976643;29;20050;-91
2022/01/21 14:38:32;;;;;;;15.07;2.80;;;;;;;2.97;100.00;101925.47;5978580;29;20073;-92
2022/01/21 14:41:55;;;;;;;12.48;2.90;;;;;;;2.94;100.00;101917.91;5972755;29;20469;-92
2022/01/21 14:45:27;;;;;;;7.05;2.40;;;;;;;2.93;100.00;101913.63;5974328;29;20068;-92
2022/01/21 14:48:33;;;;;;;11.65;2.53;;;;;;;2.87;100.00;101916.38;6006972;24;20054;-92
2022/01/21 14:51:47;;;;;;;11.90;2.70;;;;;;;2.78;100.00;101905.50;6137222;24;20057;-92
2022/01/21 14:55:15;;;;;;;10.98;2.85;;;;;;;2.75;100.00;101902.97;5993074;29;20062;-92
2022/01/21 14:58:27;;;;;;;16.33;2.92;;;;;;;2.73;100.00;101909.00;5989001;29;20058;-91
2022/01/21 15:01:35;;;;;;;7.78;2.40;;;;;;;2.70;100.00;101915.03;5949540;29;20051;-91
2022/01/21 15:08:56;;;;;;;11.43;2.30;;;;;;;2.84;100.00;101904.50;5971820;29;20050;-91
2022/01/21 15:12:12;;;;;;;14.32;3.33;;;;;;;2.86;100.00;101907.84;5955353;29;20051;-91
2022/01/21 15:15:34;;;;;;;11.43;2.55;;;;;;;2.88;100.00;101908.66;5970533;29;20049;-91
2022/01/21 15:18:37;;;;;;;9.98;2.50;;;;;;;2.83;100.00;101902.78;5956318;29;20397;-90
2022/01/21 15:21:53;;;;;;;13.93;2.70;;;;;;;2.82;100.00;101903.69;5956764;29;20061;-90
2022/01/21 15:25:03;;;;;;;13.05;3.40;;;;;;;2.78;100.00;101900.38;5956775;29;20050;-90
2022/01/21 15:28:07;;;;;;;26.38;15.65;;;;;;;2.76;100.00;101908.97;5955353;29;20058;-90
2022/01/21 15:31:12;;;;;;;57.50;35.33;;;;;;;2.83;100.00;101886.63;5957492;29;20111;-90
2022/01/21 15:34:15;;;;;;;42.50;19.67;;;;;;;2.82;100.00;101896.00;5973657;29;20191;-90
2022/01/21 15:37:16;;;;;;;10.52;5.25;;;;;;;2.74;100.00;101896.19;5954212;29;20066;-90
2022/01/21 15:40:19;;;;;;;17.02;4.13;;;;;;;2.78;100.00;101895.25;5954855;29;20050;-90
2022/01/21 15:43:27;;;;;;;14.30;3.13;;;;;;;2.89;100.00;101891.59;5958013;29;20533;-90
2022/01/21 15:46:29;;;;;;;6.38;2.95;;;;;;;2.89;100.00;101887.31;5956285;29;20142;-91
2022/01/21 15:49:31;;;;;;;16.73;3.72;;;;;;;2.87;100.00;101885.69;5955692;29;20046;-90
2022/01/21 15:52:49;;;;;;;8.05;2.30;;;;;;;2.84;100.00;101880.66;5958237;29;20412;-90
2022/01/21 15:59:44;;;;;;;9.35;2.35;;;;;;;2.89;100.00;101866.03;5947842;29;20670;-90
2022/01/21 16:02:48;;;;;;;7.63;2.50;;;;;;;2.87;100.00;101866.06;5959975;29;20055;-90
2022/01/21 16:05:50;;;;;;;12.18;2.60;;;;;;;2.78;100.00;101859.47;5955161;29;20074;-90
2022/01/21 16:08:52;;;;;;;10.43;2.92;;;;;;;2.81;100.00;101848.31;5956510;29;20054;-90
2022/01/21 16:11:56;;;;;;;12.00;2.83;;;;;;;2.78;100.00;101841.56;5955263;29;20263;-90
2022/01/21 16:14:58;;;;;;;8.88;2.60;;;;;;;2.81;100.00;101845.75;5956468;29;20085;-90
2022/01/21 16:18:00;;;;;;;11.52;3.10;;;;;;;2.83;100.00;101841.44;5952431;29;20220;-89
2022/01/21 16:21:07;;;;;;;9.77;2.67;;;;;;;2.91;100.00;101843.81;5953937;29;20050;-90
2022/01/21 16:24:12;;;;;;;10.85;2.40;;;;;;;2.88;100.00;101843.88;5952868;29;20549;-90
2022/01/21 16:27:15;;;;;;;10.82;2.60;;;;;;;2.86;100.00;101840.50;5968438;29;20456;-90
2022/01/21 16:34:30;;;;;;;10.00;2.25;;;;;;;2.88;100.00;101849.84;5956366;29;20055;-90
2022/01/21 16:37:32;;;;;;;6.13;2.33;;;;;;;2.95;100.00;101846.22;5957054;29;20043;-90
2022/01/21 16:40:35;;;;;;;5.65;2.08;;;;;;;2.89;100.00;101845.56;5953447;29;20081;-90
2022/01/21 16:43:37;;;;;;;7.10;2.33;;;;;;;2.86;100.00;101838.81;5956035;29;20098;-90
2022/01/21 16:46:40;;;;;;;7.28;2.53;;;;;;;2.88;100.00;101836.19;5957357;29;20453;-89
2022/01/21 16:49:42;;;;;;;6.68;2.88;;;;;;;2.91;100.00;101825.91;5952260;29;20195;-89
2022/01/21 16:52:46;;;;;;;9.85;2.50;;;;;;;2.89;100.00;101828.50;5955705;29;20070;-90
2022/01/21 16:55:49;;;;;;;5.88;2.15;;;;;;;2.90;100.00;101826.78;5958693;29;20047;-89
2022/01/21 16:58:50;;;;;;;7.05;3.17;;;;;;;2.85;100.00;101824.34;5955765;29;20635;-89
2022/01/21 17:01:59;;;;;;;8.35;3.78;;;;;;;2.89;100.00;101820.81;5954105;29;20385;-89